sensor_id;sensor_type;location;lat;lon;timestamp;P1;durP1;ratioP1;P2;durP2;ratioP2
54201;SDS011;40108;53.152;5.844;2023-03-01T00:02:00;30.63;;;18.83;;
54201;SDS011;40108;53.152;5.844;2023-03-01T00:04:26;30.70;;;18.58;;
54201;SDS011;40108;53.152;5.844;2023-03-01T00:06:52;25.63;;;15.95;;
54201;SDS011;40108;53.152;5.844;2023-03-01T00:09:18;63.53;;;13.27;;
54201;SDS011;40108;53.152;5.844;2023-03-01T00:11:44;137.73;;;13.07;;
54201;SDS011;40108;53.152;5.844;2023-03-01T00:14:10;125.25;;;13.50;;
54201;SDS011;40108;53.152;5.844;2023-03-01T00:16:38;178.10;;;16.00;;
54201;SDS011;40108;53.152;5.844;2023-03-01T00:19:05;155.07;;;16.02;;
54201;SDS011;40108;53.152;5.844;2023-03-01T00:21:44;239.18;;;16.27;;
54201;SDS011;40108;53.152;5.844;2023-03-01T00:24:11;222.18;;;15.98;;
54201;SDS011;40108;53.152;5.844;2023-03-01T00:26:37;147.98;;;13.48;;
54201;SDS011;40108;53.152;5.844;2023-03-01T00:29:02;310.10;;;15.13;;
54201;SDS011;40108;53.152;5.844;2023-03-01T00:31:30;529.10;;;20.13;;
54201;SDS011;40108;53.152;5.844;2023-03-01T00:33:57;350.15;;;16.17;;
54201;SDS011;40108;53.152;5.844;2023-03-01T00:36:26;201.10;;;13.70;;
54201;SDS011;40108;53.152;5.844;2023-03-01T00:38:57;333.27;;;14.98;;
54201;SDS011;40108;53.152;5.844;2023-03-01T00:41:23;157.73;;;11.93;;
54201;SDS011;40108;53.152;5.844;2023-03-01T00:43:51;260.60;;;12.65;;
54201;SDS011;40108;53.152;5.844;2023-03-01T00:46:19;207.90;;;13.00;;
54201;SDS011;40108;53.152;5.844;2023-03-01T00:48:47;208.85;;;11.98;;
54201;SDS011;40108;53.152;5.844;2023-03-01T00:51:17;200.90;;;12.63;;
54201;SDS011;40108;53.152;5.844;2023-03-01T00:53:50;200.85;;;12.75;;
54201;SDS011;40108;53.152;5.844;2023-03-01T00:56:17;248.65;;;14.10;;
54201;SDS011;40108;53.152;5.844;2023-03-01T00:58:43;146.23;;;12.32;;
54201;SDS011;40108;53.152;5.844;2023-03-01T01:01:10;169.27;;;14.90;;
54201;SDS011;40108;53.152;5.844;2023-03-01T01:03:45;144.75;;;13.73;;
54201;SDS011;40108;53.152;5.844;2023-03-01T01:06:20;165.20;;;14.73;;
54201;SDS011;40108;53.152;5.844;2023-03-01T01:08:47;71.00;;;12.90;;
54201;SDS011;40108;53.152;5.844;2023-03-01T01:11:14;65.88;;;12.98;;
54201;SDS011;40108;53.152;5.844;2023-03-01T01:13:40;67.07;;;12.52;;
54201;SDS011;40108;53.152;5.844;2023-03-01T01:16:07;60.95;;;12.02;;
54201;SDS011;40108;53.152;5.844;2023-03-01T01:18:33;112.88;;;13.45;;
54201;SDS011;40108;53.152;5.844;2023-03-01T01:21:03;84.10;;;11.82;;
54201;SDS011;40108;53.152;5.844;2023-03-01T01:23:30;45.83;;;11.25;;
54201;SDS011;40108;53.152;5.844;2023-03-01T01:25:56;53.53;;;11.45;;
54201;SDS011;40108;53.152;5.844;2023-03-01T01:28:22;32.33;;;9.43;;
54201;SDS011;40108;53.152;5.844;2023-03-01T01:30:48;57.15;;;11.43;;
54201;SDS011;40108;53.152;5.844;2023-03-01T01:33:13;61.72;;;10.32;;
54201;SDS011;40108;53.152;5.844;2023-03-01T01:35:39;80.18;;;10.60;;
54201;SDS011;40108;53.152;5.844;2023-03-01T01:38:05;86.80;;;9.70;;
54201;SDS011;40108;53.152;5.844;2023-03-01T01:40:30;68.65;;;9.32;;
54201;SDS011;40108;53.152;5.844;2023-03-01T01:42:56;76.70;;;10.00;;
54201;SDS011;40108;53.152;5.844;2023-03-01T01:45:32;53.50;;;9.70;;
54201;SDS011;40108;53.152;5.844;2023-03-01T01:48:02;45.33;;;9.25;;
54201;SDS011;40108;53.152;5.844;2023-03-01T01:50:30;67.97;;;10.98;;
54201;SDS011;40108;53.152;5.844;2023-03-01T01:53:04;47.00;;;11.05;;
54201;SDS011;40108;53.152;5.844;2023-03-01T01:55:51;37.33;;;11.05;;
54201;SDS011;40108;53.152;5.844;2023-03-01T01:58:24;29.02;;;10.63;;
54201;SDS011;40108;53.152;5.844;2023-03-01T02:00:53;19.70;;;10.65;;
54201;SDS011;40108;53.152;5.844;2023-03-01T02:03:24;52.97;;;13.07;;
54201;SDS011;40108;53.152;5.844;2023-03-01T02:05:59;132.85;;;14.77;;
54201;SDS011;40108;53.152;5.844;2023-03-01T02:08:32;169.70;;;16.63;;
54201;SDS011;40108;53.152;5.844;2023-03-01T02:11:00;97.97;;;15.20;;
54201;SDS011;40108;53.152;5.844;2023-03-01T02:13:29;187.00;;;17.98;;
54201;SDS011;40108;53.152;5.844;2023-03-01T02:15:56;216.88;;;18.00;;
54201;SDS011;40108;53.152;5.844;2023-03-01T02:18:22;388.17;;;19.92;;
54201;SDS011;40108;53.152;5.844;2023-03-01T02:23:29;297.30;;;18.25;;
54201;SDS011;40108;53.152;5.844;2023-03-01T02:25:58;540.85;;;22.52;;
54201;SDS011;40108;53.152;5.844;2023-03-01T02:28:46;140.15;;;15.77;;
54201;SDS011;40108;53.152;5.844;2023-03-01T02:31:17;501.88;;;24.92;;
54201;SDS011;40108;53.152;5.844;2023-03-01T02:34:04;371.27;;;23.27;;
54201;SDS011;40108;53.152;5.844;2023-03-01T02:36:34;346.23;;;18.30;;
54201;SDS011;40108;53.152;5.844;2023-03-01T02:39:04;174.60;;;16.40;;
54201;SDS011;40108;53.152;5.844;2023-03-01T02:41:35;242.25;;;17.65;;
54201;SDS011;40108;53.152;5.844;2023-03-01T02:44:03;340.58;;;19.75;;
54201;SDS011;40108;53.152;5.844;2023-03-01T02:46:29;209.95;;;18.35;;
54201;SDS011;40108;53.152;5.844;2023-03-01T02:48:56;167.48;;;16.88;;
54201;SDS011;40108;53.152;5.844;2023-03-01T02:56:19;278.15;;;21.15;;
54201;SDS011;40108;53.152;5.844;2023-03-01T02:58:45;130.23;;;15.25;;
54201;SDS011;40108;53.152;5.844;2023-03-01T03:01:15;95.13;;;17.10;;
54201;SDS011;40108;53.152;5.844;2023-03-01T03:03:41;113.75;;;16.45;;
54201;SDS011;40108;53.152;5.844;2023-03-01T03:06:07;112.32;;;16.65;;
54201;SDS011;40108;53.152;5.844;2023-03-01T03:08:33;94.65;;;15.13;;
54201;SDS011;40108;53.152;5.844;2023-03-01T03:10:59;117.90;;;14.30;;
54201;SDS011;40108;53.152;5.844;2023-03-01T03:13:25;182.20;;;15.75;;
54201;SDS011;40108;53.152;5.844;2023-03-01T03:15:54;109.75;;;13.43;;
54201;SDS011;40108;53.152;5.844;2023-03-01T03:18:23;60.25;;;13.18;;
54201;SDS011;40108;53.152;5.844;2023-03-01T03:20:52;111.90;;;14.82;;
54201;SDS011;40108;53.152;5.844;2023-03-01T03:23:20;74.25;;;14.95;;
54201;SDS011;40108;53.152;5.844;2023-03-01T03:25:49;161.25;;;16.83;;
54201;SDS011;40108;53.152;5.844;2023-03-01T03:28:16;89.70;;;13.50;;
54201;SDS011;40108;53.152;5.844;2023-03-01T03:30:42;71.10;;;13.95;;
54201;SDS011;40108;53.152;5.844;2023-03-01T03:33:10;63.58;;;14.75;;
54201;SDS011;40108;53.152;5.844;2023-03-01T03:35:41;67.10;;;16.02;;
54201;SDS011;40108;53.152;5.844;2023-03-01T03:38:12;119.80;;;15.70;;
54201;SDS011;40108;53.152;5.844;2023-03-01T03:40:44;141.25;;;16.42;;
54201;SDS011;40108;53.152;5.844;2023-03-01T03:43:27;238.57;;;17.67;;
54201;SDS011;40108;53.152;5.844;2023-03-01T03:45:55;305.30;;;19.90;;
54201;SDS011;40108;53.152;5.844;2023-03-01T03:48:22;181.45;;;14.98;;
54201;SDS011;40108;53.152;5.844;2023-03-01T03:50:49;18.70;;;9.88;;
54201;SDS011;40108;53.152;5.844;2023-03-01T03:53:16;58.33;;;10.13;;
54201;SDS011;40108;53.152;5.844;2023-03-01T03:55:43;46.97;;;10.48;;
54201;SDS011;40108;53.152;5.844;2023-03-01T03:58:10;141.75;;;16.15;;
54201;SDS011;40108;53.152;5.844;2023-03-01T04:00:43;21.35;;;10.90;;
54201;SDS011;40108;53.152;5.844;2023-03-01T04:03:10;12.38;;;9.40;;
54201;SDS011;40108;53.152;5.844;2023-03-01T04:05:37;13.13;;;9.88;;
54201;SDS011;40108;53.152;5.844;2023-03-01T04:08:04;16.10;;;10.68;;
54201;SDS011;40108;53.152;5.844;2023-03-01T04:10:44;14.95;;;10.95;;
54201;SDS011;40108;53.152;5.844;2023-03-01T04:13:12;13.27;;;10.15;;
54201;SDS011;40108;53.152;5.844;2023-03-01T04:15:40;13.38;;;7.97;;
54201;SDS011;40108;53.152;5.844;2023-03-01T04:18:08;11.82;;;8.32;;
54201;SDS011;40108;53.152;5.844;2023-03-01T04:20:37;12.25;;;8.30;;
54201;SDS011;40108;53.152;5.844;2023-03-01T04:23:05;9.90;;;7.97;;
54201;SDS011;40108;53.152;5.844;2023-03-01T04:28:08;12.77;;;8.38;;
54201;SDS011;40108;53.152;5.844;2023-03-01T04:30:35;10.20;;;8.27;;
54201;SDS011;40108;53.152;5.844;2023-03-01T04:33:05;11.60;;;8.77;;
54201;SDS011;40108;53.152;5.844;2023-03-01T04:35:32;10.90;;;7.65;;
54201;SDS011;40108;53.152;5.844;2023-03-01T04:37:58;11.38;;;8.77;;
54201;SDS011;40108;53.152;5.844;2023-03-01T04:40:24;91.47;;;11.63;;
54201;SDS011;40108;53.152;5.844;2023-03-01T04:42:50;364.90;;;18.50;;
54201;SDS011;40108;53.152;5.844;2023-03-01T04:45:16;150.25;;;11.70;;
54201;SDS011;40108;53.152;5.844;2023-03-01T04:47:42;258.05;;;15.25;;
54201;SDS011;40108;53.152;5.844;2023-03-01T04:50:13;106.60;;;12.13;;
54201;SDS011;40108;53.152;5.844;2023-03-01T04:52:40;382.75;;;19.05;;
54201;SDS011;40108;53.152;5.844;2023-03-01T04:55:07;330.45;;;18.10;;
54201;SDS011;40108;53.152;5.844;2023-03-01T04:57:33;156.73;;;14.02;;
54201;SDS011;40108;53.152;5.844;2023-03-01T04:59:59;279.35;;;13.98;;
54201;SDS011;40108;53.152;5.844;2023-03-01T05:02:25;144.48;;;12.07;;
54201;SDS011;40108;53.152;5.844;2023-03-01T05:04:51;164.13;;;12.43;;
54201;SDS011;40108;53.152;5.844;2023-03-01T05:07:16;184.73;;;12.73;;
54201;SDS011;40108;53.152;5.844;2023-03-01T05:09:46;403.45;;;18.73;;
54201;SDS011;40108;53.152;5.844;2023-03-01T05:12:12;463.33;;;23.42;;
54201;SDS011;40108;53.152;5.844;2023-03-01T05:14:38;172.65;;;12.98;;
54201;SDS011;40108;53.152;5.844;2023-03-01T05:17:04;383.85;;;25.55;;
54201;SDS011;40108;53.152;5.844;2023-03-01T05:19:31;50.50;;;9.40;;
54201;SDS011;40108;53.152;5.844;2023-03-01T05:21:58;863.13;;;48.70;;
54201;SDS011;40108;53.152;5.844;2023-03-01T05:24:26;32.50;;;11.65;;
54201;SDS011;40108;53.152;5.844;2023-03-01T05:26:53;14.00;;;10.10;;
54201;SDS011;40108;53.152;5.844;2023-03-01T05:29:20;25.27;;;11.83;;
54201;SDS011;40108;53.152;5.844;2023-03-01T05:31:57;15.70;;;11.00;;
54201;SDS011;40108;53.152;5.844;2023-03-01T05:34:24;14.77;;;10.13;;
54201;SDS011;40108;53.152;5.844;2023-03-01T05:36:51;12.50;;;9.90;;
54201;SDS011;40108;53.152;5.844;2023-03-01T05:39:21;20.52;;;11.25;;
54201;SDS011;40108;53.152;5.844;2023-03-01T05:41:51;12.93;;;9.67;;
54201;SDS011;40108;53.152;5.844;2023-03-01T05:44:19;15.50;;;10.13;;
54201;SDS011;40108;53.152;5.844;2023-03-01T05:46:45;16.20;;;10.67;;
54201;SDS011;40108;53.152;5.844;2023-03-01T05:49:11;18.70;;;10.20;;
54201;SDS011;40108;53.152;5.844;2023-03-01T05:51:41;13.53;;;10.17;;
54201;SDS011;40108;53.152;5.844;2023-03-01T05:54:08;15.50;;;10.97;;
54201;SDS011;40108;53.152;5.844;2023-03-01T05:56:35;17.00;;;9.77;;
54201;SDS011;40108;53.152;5.844;2023-03-01T05:59:02;11.80;;;9.20;;
54201;SDS011;40108;53.152;5.844;2023-03-01T06:01:30;11.43;;;9.43;;
54201;SDS011;40108;53.152;5.844;2023-03-01T06:03:56;12.30;;;9.10;;
54201;SDS011;40108;53.152;5.844;2023-03-01T06:06:22;11.27;;;9.93;;
54201;SDS011;40108;53.152;5.844;2023-03-01T06:08:49;12.53;;;9.90;;
54201;SDS011;40108;53.152;5.844;2023-03-01T06:11:15;11.13;;;9.60;;
54201;SDS011;40108;53.152;5.844;2023-03-01T06:13:41;13.37;;;9.73;;
54201;SDS011;40108;53.152;5.844;2023-03-01T06:16:08;11.17;;;8.83;;
54201;SDS011;40108;53.152;5.844;2023-03-01T06:18:34;11.60;;;9.10;;
54201;SDS011;40108;53.152;5.844;2023-03-01T06:21:00;10.73;;;8.85;;
54201;SDS011;40108;53.152;5.844;2023-03-01T06:23:25;9.63;;;8.53;;
54201;SDS011;40108;53.152;5.844;2023-03-01T06:25:51;10.13;;;8.53;;
54201;SDS011;40108;53.152;5.844;2023-03-01T06:28:17;12.87;;;9.07;;
54201;SDS011;40108;53.152;5.844;2023-03-01T06:30:43;11.50;;;8.73;;
54201;SDS011;40108;53.152;5.844;2023-03-01T06:33:09;10.63;;;9.13;;
54201;SDS011;40108;53.152;5.844;2023-03-01T06:35:34;10.63;;;8.53;;
54201;SDS011;40108;53.152;5.844;2023-03-01T06:38:01;9.83;;;8.83;;
54201;SDS011;40108;53.152;5.844;2023-03-01T06:40:27;10.07;;;8.95;;
54201;SDS011;40108;53.152;5.844;2023-03-01T06:42:54;9.70;;;8.50;;
54201;SDS011;40108;53.152;5.844;2023-03-01T06:45:20;10.37;;;8.73;;
54201;SDS011;40108;53.152;5.844;2023-03-01T06:47:46;12.53;;;8.93;;
54201;SDS011;40108;53.152;5.844;2023-03-01T06:50:12;8.83;;;7.93;;
54201;SDS011;40108;53.152;5.844;2023-03-01T06:52:39;9.50;;;7.93;;
54201;SDS011;40108;53.152;5.844;2023-03-01T06:55:05;13.47;;;11.17;;
54201;SDS011;40108;53.152;5.844;2023-03-01T06:57:31;15.07;;;12.27;;
54201;SDS011;40108;53.152;5.844;2023-03-01T06:59:57;11.53;;;10.03;;
54201;SDS011;40108;53.152;5.844;2023-03-01T07:02:23;10.40;;;8.97;;
54201;SDS011;40108;53.152;5.844;2023-03-01T07:04:49;9.17;;;8.23;;
54201;SDS011;40108;53.152;5.844;2023-03-01T07:07:16;9.77;;;8.38;;
54201;SDS011;40108;53.152;5.844;2023-03-01T07:09:43;9.23;;;8.33;;
54201;SDS011;40108;53.152;5.844;2023-03-01T07:12:10;13.53;;;11.87;;
54201;SDS011;40108;53.152;5.844;2023-03-01T07:14:35;10.93;;;9.77;;
54201;SDS011;40108;53.152;5.844;2023-03-01T07:17:01;12.10;;;10.50;;
54201;SDS011;40108;53.152;5.844;2023-03-01T07:19:27;13.27;;;9.40;;
54201;SDS011;40108;53.152;5.844;2023-03-01T07:21:53;13.20;;;9.93;;
54201;SDS011;40108;53.152;5.844;2023-03-01T07:24:19;146.73;;;12.87;;
54201;SDS011;40108;53.152;5.844;2023-03-01T07:26:47;75.97;;;10.73;;
54201;SDS011;40108;53.152;5.844;2023-03-01T07:29:14;53.53;;;12.17;;
54201;SDS011;40108;53.152;5.844;2023-03-01T07:31:40;41.20;;;11.13;;
54201;SDS011;40108;53.152;5.844;2023-03-01T07:34:05;231.57;;;22.37;;
54201;SDS011;40108;53.152;5.844;2023-03-01T07:36:31;104.10;;;12.70;;
54201;SDS011;40108;53.152;5.844;2023-03-01T07:38:57;83.63;;;12.33;;
54201;SDS011;40108;53.152;5.844;2023-03-01T07:41:23;17.27;;;12.30;;
54201;SDS011;40108;53.152;5.844;2023-03-01T07:43:49;101.17;;;13.77;;
54201;SDS011;40108;53.152;5.844;2023-03-01T07:46:15;19.67;;;11.17;;
54201;SDS011;40108;53.152;5.844;2023-03-01T07:48:40;15.85;;;11.35;;
54201;SDS011;40108;53.152;5.844;2023-03-01T07:51:07;16.43;;;11.43;;
54201;SDS011;40108;53.152;5.844;2023-03-01T07:53:33;17.58;;;11.88;;
54201;SDS011;40108;53.152;5.844;2023-03-01T07:56:00;15.60;;;12.07;;
54201;SDS011;40108;53.152;5.844;2023-03-01T07:58:30;18.02;;;12.95;;
54201;SDS011;40108;53.152;5.844;2023-03-01T08:01:01;13.20;;;10.73;;
54201;SDS011;40108;53.152;5.844;2023-03-01T08:03:28;14.03;;;11.73;;
54201;SDS011;40108;53.152;5.844;2023-03-01T08:05:54;17.98;;;13.63;;
54201;SDS011;40108;53.152;5.844;2023-03-01T08:08:19;15.32;;;12.23;;
54201;SDS011;40108;53.152;5.844;2023-03-01T08:10:45;12.98;;;10.68;;
54201;SDS011;40108;53.152;5.844;2023-03-01T08:13:11;13.32;;;11.77;;
54201;SDS011;40108;53.152;5.844;2023-03-01T08:15:36;18.85;;;16.30;;
54201;SDS011;40108;53.152;5.844;2023-03-01T08:18:02;17.60;;;15.30;;
54201;SDS011;40108;53.152;5.844;2023-03-01T08:20:28;20.42;;;17.02;;
54201;SDS011;40108;53.152;5.844;2023-03-01T08:22:53;14.80;;;12.90;;
54201;SDS011;40108;53.152;5.844;2023-03-01T08:25:19;12.23;;;10.82;;
54201;SDS011;40108;53.152;5.844;2023-03-01T08:27:45;12.32;;;11.05;;
54201;SDS011;40108;53.152;5.844;2023-03-01T08:30:11;24.60;;;20.42;;
54201;SDS011;40108;53.152;5.844;2023-03-01T08:32:37;16.98;;;15.20;;
54201;SDS011;40108;53.152;5.844;2023-03-01T08:35:04;17.70;;;14.95;;
54201;SDS011;40108;53.152;5.844;2023-03-01T08:37:30;14.25;;;12.82;;
54201;SDS011;40108;53.152;5.844;2023-03-01T08:39:57;18.10;;;14.65;;
54201;SDS011;40108;53.152;5.844;2023-03-01T08:42:24;12.48;;;10.50;;
54201;SDS011;40108;53.152;5.844;2023-03-01T08:44:50;13.27;;;11.52;;
54201;SDS011;40108;53.152;5.844;2023-03-01T08:47:15;10.38;;;9.38;;
54201;SDS011;40108;53.152;5.844;2023-03-01T08:49:41;10.45;;;9.35;;
54201;SDS011;40108;53.152;5.844;2023-03-01T08:52:07;9.55;;;8.55;;
54201;SDS011;40108;53.152;5.844;2023-03-01T08:54:32;7.53;;;6.70;;
54201;SDS011;40108;53.152;5.844;2023-03-01T08:56:58;7.63;;;6.80;;
54201;SDS011;40108;53.152;5.844;2023-03-01T08:59:27;9.35;;;8.43;;
54201;SDS011;40108;53.152;5.844;2023-03-01T09:01:54;7.82;;;6.65;;
54201;SDS011;40108;53.152;5.844;2023-03-01T09:04:20;8.60;;;7.80;;
54201;SDS011;40108;53.152;5.844;2023-03-01T09:06:46;9.05;;;7.60;;
54201;SDS011;40108;53.152;5.844;2023-03-01T09:09:17;8.02;;;7.22;;
54201;SDS011;40108;53.152;5.844;2023-03-01T09:11:43;8.20;;;7.40;;
54201;SDS011;40108;53.152;5.844;2023-03-01T09:14:11;7.55;;;6.45;;
54201;SDS011;40108;53.152;5.844;2023-03-01T09:16:38;8.13;;;6.85;;
54201;SDS011;40108;53.152;5.844;2023-03-01T09:19:04;8.10;;;7.30;;
54201;SDS011;40108;53.152;5.844;2023-03-01T09:21:30;8.15;;;7.35;;
54201;SDS011;40108;53.152;5.844;2023-03-01T09:23:56;8.23;;;7.43;;
54201;SDS011;40108;53.152;5.844;2023-03-01T09:26:23;8.80;;;8.00;;
54201;SDS011;40108;53.152;5.844;2023-03-01T09:28:50;9.00;;;8.10;;
54201;SDS011;40108;53.152;5.844;2023-03-01T09:31:20;8.20;;;7.40;;
54201;SDS011;40108;53.152;5.844;2023-03-01T09:33:47;11.45;;;8.45;;
54201;SDS011;40108;53.152;5.844;2023-03-01T09:36:15;9.65;;;8.55;;
54201;SDS011;40108;53.152;5.844;2023-03-01T09:38:43;12.82;;;10.68;;
54201;SDS011;40108;53.152;5.844;2023-03-01T09:44:13;13.50;;;10.63;;
54201;SDS011;40108;53.152;5.844;2023-03-01T09:46:59;17.50;;;10.65;;
54201;SDS011;40108;53.152;5.844;2023-03-01T09:49:27;13.40;;;10.27;;
54201;SDS011;40108;53.152;5.844;2023-03-01T09:52:00;11.75;;;9.35;;
54201;SDS011;40108;53.152;5.844;2023-03-01T09:54:30;11.70;;;10.00;;
54201;SDS011;40108;53.152;5.844;2023-03-01T10:02:26;10.57;;;9.48;;
54201;SDS011;40108;53.152;5.844;2023-03-01T10:05:31;10.60;;;8.75;;
54201;SDS011;40108;53.152;5.844;2023-03-01T10:10:50;9.07;;;8.00;;
54201;SDS011;40108;53.152;5.844;2023-03-01T10:13:42;11.18;;;7.95;;
54201;SDS011;40108;53.152;5.844;2023-03-01T10:21:57;12.82;;;8.68;;
54201;SDS011;40108;53.152;5.844;2023-03-01T10:24:41;10.52;;;8.50;;
54201;SDS011;40108;53.152;5.844;2023-03-01T10:27:08;10.30;;;9.20;;
54201;SDS011;40108;53.152;5.844;2023-03-01T10:29:57;9.75;;;8.65;;
54201;SDS011;40108;53.152;5.844;2023-03-01T10:32:45;9.80;;;8.80;;
54201;SDS011;40108;53.152;5.844;2023-03-01T10:35:25;12.55;;;9.18;;
54201;SDS011;40108;53.152;5.844;2023-03-01T10:38:02;11.48;;;8.93;;
54201;SDS011;40108;53.152;5.844;2023-03-01T10:40:28;11.10;;;9.18;;
54201;SDS011;40108;53.152;5.844;2023-03-01T10:42:54;10.20;;;8.70;;
54201;SDS011;40108;53.152;5.844;2023-03-01T10:48:03;13.77;;;9.35;;
54201;SDS011;40108;53.152;5.844;2023-03-01T10:50:35;14.23;;;8.95;;
54201;SDS011;40108;53.152;5.844;2023-03-01T10:53:03;11.70;;;10.35;;
54201;SDS011;40108;53.152;5.844;2023-03-01T10:55:36;13.27;;;10.57;;
54201;SDS011;40108;53.152;5.844;2023-03-01T11:03:22;11.80;;;10.10;;
54201;SDS011;40108;53.152;5.844;2023-03-01T11:11:07;16.50;;;11.40;;
54201;SDS011;40108;53.152;5.844;2023-03-01T11:16:27;13.10;;;10.85;;
54201;SDS011;40108;53.152;5.844;2023-03-01T11:21:34;12.15;;;10.30;;
54201;SDS011;40108;53.152;5.844;2023-03-01T11:24:06;12.43;;;10.95;;
54201;SDS011;40108;53.152;5.844;2023-03-01T11:26:38;13.20;;;10.33;;
54201;SDS011;40108;53.152;5.844;2023-03-01T11:29:09;14.25;;;11.00;;
54201;SDS011;40108;53.152;5.844;2023-03-01T11:31:56;12.80;;;10.52;;
54201;SDS011;40108;53.152;5.844;2023-03-01T11:34:32;14.07;;;10.52;;
54201;SDS011;40108;53.152;5.844;2023-03-01T11:37:21;14.40;;;10.30;;
54201;SDS011;40108;53.152;5.844;2023-03-01T11:43:05;12.77;;;10.55;;
54201;SDS011;40108;53.152;5.844;2023-03-01T11:48:34;14.65;;;10.75;;
54201;SDS011;40108;53.152;5.844;2023-03-01T11:57:11;16.25;;;12.40;;
54201;SDS011;40108;53.152;5.844;2023-03-01T12:02:55;15.15;;;12.52;;
54201;SDS011;40108;53.152;5.844;2023-03-01T12:13:56;16.13;;;13.57;;
54201;SDS011;40108;53.152;5.844;2023-03-01T12:16:30;17.00;;;13.27;;
54201;SDS011;40108;53.152;5.844;2023-03-01T12:25:16;17.08;;;13.45;;
54201;SDS011;40108;53.152;5.844;2023-03-01T12:41:42;17.42;;;11.82;;
54201;SDS011;40108;53.152;5.844;2023-03-01T12:49:41;13.40;;;11.48;;
54201;SDS011;40108;53.152;5.844;2023-03-01T12:52:16;14.63;;;11.30;;
54201;SDS011;40108;53.152;5.844;2023-03-01T12:54:47;13.43;;;11.57;;
54201;SDS011;40108;53.152;5.844;2023-03-01T13:03:24;14.80;;;11.23;;
54201;SDS011;40108;53.152;5.844;2023-03-01T13:06:23;15.23;;;12.30;;
54201;SDS011;40108;53.152;5.844;2023-03-01T13:08:42;17.10;;;13.07;;
54201;SDS011;40108;53.152;5.844;2023-03-01T13:11:17;18.17;;;13.52;;
54201;SDS011;40108;53.152;5.844;2023-03-01T13:13:45;16.38;;;13.82;;
54201;SDS011;40108;53.152;5.844;2023-03-01T13:19:08;16.40;;;12.70;;
54201;SDS011;40108;53.152;5.844;2023-03-01T13:21:35;20.27;;;13.05;;
54201;SDS011;40108;53.152;5.844;2023-03-01T13:24:01;15.38;;;12.93;;
54201;SDS011;40108;53.152;5.844;2023-03-01T13:26:26;14.73;;;12.20;;
54201;SDS011;40108;53.152;5.844;2023-03-01T13:28:56;15.35;;;11.73;;
54201;SDS011;40108;53.152;5.844;2023-03-01T13:41:53;14.93;;;12.00;;
54201;SDS011;40108;53.152;5.844;2023-03-01T13:52:39;16.80;;;12.75;;
54201;SDS011;40108;53.152;5.844;2023-03-01T13:57:38;16.20;;;12.93;;
54201;SDS011;40108;53.152;5.844;2023-03-01T14:00:07;16.67;;;13.00;;
54201;SDS011;40108;53.152;5.844;2023-03-01T14:03:27;16.00;;;12.95;;
54201;SDS011;40108;53.152;5.844;2023-03-01T14:08:37;18.02;;;13.63;;
54201;SDS011;40108;53.152;5.844;2023-03-01T14:17:09;16.65;;;12.90;;
54201;SDS011;40108;53.152;5.844;2023-03-01T14:20:00;19.83;;;13.98;;
54201;SDS011;40108;53.152;5.844;2023-03-01T14:22:33;21.65;;;13.43;;
54201;SDS011;40108;53.152;5.844;2023-03-01T14:25:02;16.73;;;13.40;;
54201;SDS011;40108;53.152;5.844;2023-03-01T14:27:50;16.83;;;12.40;;
54201;SDS011;40108;53.152;5.844;2023-03-01T14:30:26;17.48;;;12.45;;
54201;SDS011;40108;53.152;5.844;2023-03-01T14:32:57;16.08;;;12.02;;
54201;SDS011;40108;53.152;5.844;2023-03-01T14:35:26;16.35;;;13.05;;
54201;SDS011;40108;53.152;5.844;2023-03-01T14:37:53;17.98;;;13.35;;
54201;SDS011;40108;53.152;5.844;2023-03-01T14:40:27;16.50;;;12.40;;
54201;SDS011;40108;53.152;5.844;2023-03-01T14:42:53;14.90;;;12.25;;
54201;SDS011;40108;53.152;5.844;2023-03-01T14:45:21;17.45;;;13.07;;
54201;SDS011;40108;53.152;5.844;2023-03-01T14:47:49;17.25;;;13.02;;
54201;SDS011;40108;53.152;5.844;2023-03-01T14:50:26;16.65;;;13.02;;
54201;SDS011;40108;53.152;5.844;2023-03-01T14:52:56;16.70;;;11.60;;
54201;SDS011;40108;53.152;5.844;2023-03-01T14:55:25;14.45;;;11.80;;
54201;SDS011;40108;53.152;5.844;2023-03-01T14:57:57;14.50;;;12.40;;
54201;SDS011;40108;53.152;5.844;2023-03-01T15:00:28;17.30;;;11.90;;
54201;SDS011;40108;53.152;5.844;2023-03-01T15:02:56;19.10;;;12.00;;
54201;SDS011;40108;53.152;5.844;2023-03-01T15:05:32;15.73;;;11.75;;
54201;SDS011;40108;53.152;5.844;2023-03-01T15:08:00;17.40;;;12.68;;
54201;SDS011;40108;53.152;5.844;2023-03-01T15:10:29;16.05;;;12.48;;
54201;SDS011;40108;53.152;5.844;2023-03-01T15:13:09;15.77;;;12.35;;
54201;SDS011;40108;53.152;5.844;2023-03-01T15:15:45;16.98;;;12.52;;
54201;SDS011;40108;53.152;5.844;2023-03-01T15:18:14;14.40;;;11.80;;
54201;SDS011;40108;53.152;5.844;2023-03-01T15:23:28;14.38;;;10.07;;
54201;SDS011;40108;53.152;5.844;2023-03-01T15:25:55;14.88;;;11.20;;
54201;SDS011;40108;53.152;5.844;2023-03-01T15:28:49;14.15;;;10.75;;
54201;SDS011;40108;53.152;5.844;2023-03-01T15:33:43;14.60;;;11.45;;
54201;SDS011;40108;53.152;5.844;2023-03-01T15:36:31;13.67;;;10.90;;
54201;SDS011;40108;53.152;5.844;2023-03-01T15:39:02;13.20;;;10.95;;
54201;SDS011;40108;53.152;5.844;2023-03-01T15:41:48;15.23;;;11.10;;
54201;SDS011;40108;53.152;5.844;2023-03-01T15:44:14;16.33;;;11.15;;
54201;SDS011;40108;53.152;5.844;2023-03-01T15:46:58;15.93;;;11.55;;
54201;SDS011;40108;53.152;5.844;2023-03-01T15:54:54;15.82;;;11.82;;
54201;SDS011;40108;53.152;5.844;2023-03-01T15:57:22;14.48;;;11.95;;
54201;SDS011;40108;53.152;5.844;2023-03-01T15:59:47;16.98;;;12.48;;
54201;SDS011;40108;53.152;5.844;2023-03-01T16:02:14;16.08;;;11.45;;
54201;SDS011;40108;53.152;5.844;2023-03-01T16:04:40;18.98;;;12.57;;
54201;SDS011;40108;53.152;5.844;2023-03-01T16:07:06;17.95;;;12.52;;
54201;SDS011;40108;53.152;5.844;2023-03-01T16:09:33;16.48;;;12.40;;
54201;SDS011;40108;53.152;5.844;2023-03-01T16:11:59;15.05;;;11.98;;
54201;SDS011;40108;53.152;5.844;2023-03-01T16:14:24;16.30;;;11.55;;
54201;SDS011;40108;53.152;5.844;2023-03-01T16:16:50;16.15;;;11.85;;
54201;SDS011;40108;53.152;5.844;2023-03-01T16:19:16;18.10;;;15.85;;
54201;SDS011;40108;53.152;5.844;2023-03-01T16:21:42;18.23;;;14.98;;
54201;SDS011;40108;53.152;5.844;2023-03-01T16:24:08;15.38;;;13.15;;
54201;SDS011;40108;53.152;5.844;2023-03-01T16:26:36;44.95;;;30.65;;
54201;SDS011;40108;53.152;5.844;2023-03-01T16:29:02;17.75;;;13.20;;
54201;SDS011;40108;53.152;5.844;2023-03-01T16:31:28;16.67;;;13.70;;
54201;SDS011;40108;53.152;5.844;2023-03-01T16:33:54;16.13;;;12.63;;
54201;SDS011;40108;53.152;5.844;2023-03-01T16:36:22;13.27;;;10.95;;
54201;SDS011;40108;53.152;5.844;2023-03-01T16:38:49;14.65;;;11.40;;
54201;SDS011;40108;53.152;5.844;2023-03-01T16:41:16;13.13;;;10.70;;
54201;SDS011;40108;53.152;5.844;2023-03-01T16:43:44;13.73;;;11.13;;
54201;SDS011;40108;53.152;5.844;2023-03-01T16:46:12;13.45;;;10.60;;
54201;SDS011;40108;53.152;5.844;2023-03-01T16:48:39;13.55;;;11.23;;
54201;SDS011;40108;53.152;5.844;2023-03-01T16:51:05;14.90;;;10.63;;
54201;SDS011;40108;53.152;5.844;2023-03-01T16:53:32;20.88;;;13.27;;
54201;SDS011;40108;53.152;5.844;2023-03-01T16:55:59;18.98;;;14.05;;
54201;SDS011;40108;53.152;5.844;2023-03-01T16:58:25;19.40;;;14.27;;
54201;SDS011;40108;53.152;5.844;2023-03-01T17:00:52;22.80;;;15.70;;